logo
Search for airport 
image banner adimage banner adimage banner ad
image banner ad

SION - Tibagi

Located in Guaramiranga, Brazil

ICAO - SION, IATA -

Data provided by Airmate  

General information

Coordinates: S4°15'5" W38°57'6"
Elevation is 2808 feet MSL.
Magnetic variation is -20.948550176° East
View others Airports in Ceará

Operational data

Special qualification required
Current time UTC:
Current local time:
Weather at : SBFZ - Pinto Martins ( 70 km )
METAR: SBFZ 171900Z 11013KT 9999 FEW030 29/22 Q1010
TAF: TAF SBFZ 171439Z 1718/1818 12015KT 9999 FEW030 TN24/1809Z TX30/1817Z BECMG 1723/1801 18005KT TEMPO 1801/1807 4000 RA BKN010 BECMG 1810/1812 14015KT RMK PHI
View NOTAMs / SUP AIP / TFR affecting this airport [VIEW]
Communications frequencies: [VIEW]

Runways:

Airport contact information

Address: Guaramiranga Brazil

Satellite view of SION